sensor_id;sensor_type;location;lat;lon;timestamp;P1;durP1;ratioP1;P2;durP2;ratioP2
59310;SDS011;45078;51.654;21.250;2023-11-21T00:01:39;27.73;;;9.68;;
59310;SDS011;45078;51.654;21.250;2023-11-21T00:04:05;28.92;;;10.95;;
59310;SDS011;45078;51.654;21.250;2023-11-21T00:06:32;29.25;;;10.07;;
59310;SDS011;45078;51.654;21.250;2023-11-21T00:08:58;30.20;;;11.48;;
59310;SDS011;45078;51.654;21.250;2023-11-21T00:11:23;25.73;;;10.65;;
59310;SDS011;45078;51.654;21.250;2023-11-21T00:13:50;27.15;;;10.32;;
59310;SDS011;45078;51.654;21.250;2023-11-21T00:16:16;27.73;;;11.27;;
59310;SDS011;45078;51.654;21.250;2023-11-21T00:18:41;26.27;;;9.40;;
59310;SDS011;45078;51.654;21.250;2023-11-21T00:21:07;26.00;;;9.52;;
59310;SDS011;45078;51.654;21.250;2023-11-21T00:23:34;26.10;;;9.40;;
59310;SDS011;45078;51.654;21.250;2023-11-21T00:26:00;23.80;;;10.02;;
59310;SDS011;45078;51.654;21.250;2023-11-21T00:28:26;24.70;;;10.23;;
59310;SDS011;45078;51.654;21.250;2023-11-21T00:30:51;26.90;;;10.57;;
59310;SDS011;45078;51.654;21.250;2023-11-21T00:33:17;29.60;;;11.10;;
59310;SDS011;45078;51.654;21.250;2023-11-21T00:35:42;24.27;;;9.55;;
59310;SDS011;45078;51.654;21.250;2023-11-21T00:38:08;25.88;;;10.00;;
59310;SDS011;45078;51.654;21.250;2023-11-21T00:40:34;24.98;;;9.52;;
59310;SDS011;45078;51.654;21.250;2023-11-21T00:42:59;25.90;;;10.30;;
59310;SDS011;45078;51.654;21.250;2023-11-21T00:45:25;23.73;;;9.95;;
59310;SDS011;45078;51.654;21.250;2023-11-21T00:47:51;24.17;;;9.30;;
59310;SDS011;45078;51.654;21.250;2023-11-21T00:50:17;23.45;;;9.50;;
59310;SDS011;45078;51.654;21.250;2023-11-21T00:52:42;23.05;;;9.00;;
59310;SDS011;45078;51.654;21.250;2023-11-21T00:55:08;24.52;;;9.75;;
59310;SDS011;45078;51.654;21.250;2023-11-21T00:57:35;24.20;;;10.10;;
59310;SDS011;45078;51.654;21.250;2023-11-21T01:00:02;23.50;;;10.30;;
59310;SDS011;45078;51.654;21.250;2023-11-21T01:02:32;25.27;;;9.02;;
59310;SDS011;45078;51.654;21.250;2023-11-21T01:04:58;21.10;;;7.93;;
59310;SDS011;45078;51.654;21.250;2023-11-21T01:07:23;22.77;;;9.40;;
59310;SDS011;45078;51.654;21.250;2023-11-21T01:09:49;29.20;;;10.50;;
59310;SDS011;45078;51.654;21.250;2023-11-21T01:12:15;21.60;;;8.98;;
59310;SDS011;45078;51.654;21.250;2023-11-21T01:14:42;19.70;;;10.18;;
59310;SDS011;45078;51.654;21.250;2023-11-21T01:17:08;24.00;;;10.05;;
59310;SDS011;45078;51.654;21.250;2023-11-21T01:19:33;20.77;;;9.63;;
59310;SDS011;45078;51.654;21.250;2023-11-21T01:21:59;25.98;;;9.82;;
59310;SDS011;45078;51.654;21.250;2023-11-21T01:24:24;25.48;;;10.35;;
59310;SDS011;45078;51.654;21.250;2023-11-21T01:26:50;20.30;;;8.77;;
59310;SDS011;45078;51.654;21.250;2023-11-21T01:29:15;23.35;;;9.20;;
59310;SDS011;45078;51.654;21.250;2023-11-21T01:31:41;16.65;;;8.05;;
59310;SDS011;45078;51.654;21.250;2023-11-21T01:34:07;20.40;;;9.45;;
59310;SDS011;45078;51.654;21.250;2023-11-21T01:36:32;24.52;;;8.70;;
59310;SDS011;45078;51.654;21.250;2023-11-21T01:38:58;21.45;;;9.00;;
59310;SDS011;45078;51.654;21.250;2023-11-21T01:41:25;22.08;;;8.10;;
59310;SDS011;45078;51.654;21.250;2023-11-21T01:43:52;24.92;;;9.85;;
59310;SDS011;45078;51.654;21.250;2023-11-21T01:46:18;17.42;;;8.23;;
59310;SDS011;45078;51.654;21.250;2023-11-21T01:48:45;23.63;;;10.32;;
59310;SDS011;45078;51.654;21.250;2023-11-21T01:51:11;21.65;;;8.98;;
59310;SDS011;45078;51.654;21.250;2023-11-21T01:53:37;15.65;;;7.72;;
59310;SDS011;45078;51.654;21.250;2023-11-21T01:56:04;18.70;;;7.38;;
59310;SDS011;45078;51.654;21.250;2023-11-21T01:58:33;17.35;;;7.85;;
59310;SDS011;45078;51.654;21.250;2023-11-21T02:00:58;22.58;;;9.32;;
59310;SDS011;45078;51.654;21.250;2023-11-21T02:03:24;21.38;;;9.40;;
59310;SDS011;45078;51.654;21.250;2023-11-21T02:05:51;18.85;;;8.30;;
59310;SDS011;45078;51.654;21.250;2023-11-21T02:08:18;17.80;;;8.27;;
59310;SDS011;45078;51.654;21.250;2023-11-21T02:10:44;23.23;;;9.52;;
59310;SDS011;45078;51.654;21.250;2023-11-21T02:13:10;23.65;;;7.57;;
59310;SDS011;45078;51.654;21.250;2023-11-21T02:15:36;17.23;;;7.45;;
59310;SDS011;45078;51.654;21.250;2023-11-21T02:18:03;17.90;;;7.90;;
59310;SDS011;45078;51.654;21.250;2023-11-21T02:20:30;19.08;;;8.63;;
59310;SDS011;45078;51.654;21.250;2023-11-21T02:22:56;21.77;;;8.82;;
59310;SDS011;45078;51.654;21.250;2023-11-21T02:25:29;20.30;;;8.25;;
59310;SDS011;45078;51.654;21.250;2023-11-21T02:28:02;23.00;;;8.18;;
59310;SDS011;45078;51.654;21.250;2023-11-21T02:30:28;24.88;;;8.98;;
59310;SDS011;45078;51.654;21.250;2023-11-21T02:32:55;23.00;;;8.82;;
59310;SDS011;45078;51.654;21.250;2023-11-21T02:35:22;19.42;;;9.00;;
59310;SDS011;45078;51.654;21.250;2023-11-21T02:37:48;23.23;;;9.27;;
59310;SDS011;45078;51.654;21.250;2023-11-21T02:40:14;18.73;;;8.43;;
59310;SDS011;45078;51.654;21.250;2023-11-21T02:42:45;21.25;;;8.93;;
59310;SDS011;45078;51.654;21.250;2023-11-21T02:45:15;22.08;;;8.70;;
59310;SDS011;45078;51.654;21.250;2023-11-21T02:47:42;19.23;;;7.75;;
59310;SDS011;45078;51.654;21.250;2023-11-21T02:50:08;20.67;;;8.20;;
59310;SDS011;45078;51.654;21.250;2023-11-21T02:52:35;21.27;;;7.53;;
59310;SDS011;45078;51.654;21.250;2023-11-21T02:55:01;17.88;;;8.50;;
59310;SDS011;45078;51.654;21.250;2023-11-21T02:57:27;19.60;;;7.68;;
59310;SDS011;45078;51.654;21.250;2023-11-21T02:59:53;16.45;;;7.78;;
59310;SDS011;45078;51.654;21.250;2023-11-21T03:02:19;18.45;;;7.50;;
59310;SDS011;45078;51.654;21.250;2023-11-21T03:04:45;20.83;;;9.15;;
59310;SDS011;45078;51.654;21.250;2023-11-21T03:07:13;22.55;;;8.85;;
59310;SDS011;45078;51.654;21.250;2023-11-21T03:09:38;18.73;;;8.40;;
59310;SDS011;45078;51.654;21.250;2023-11-21T03:12:04;20.27;;;8.80;;
59310;SDS011;45078;51.654;21.250;2023-11-21T03:14:30;18.95;;;7.85;;
59310;SDS011;45078;51.654;21.250;2023-11-21T03:16:56;19.13;;;7.93;;
59310;SDS011;45078;51.654;21.250;2023-11-21T03:19:22;15.60;;;7.53;;
59310;SDS011;45078;51.654;21.250;2023-11-21T03:21:48;15.40;;;7.35;;
59310;SDS011;45078;51.654;21.250;2023-11-21T03:24:14;16.33;;;6.95;;
59310;SDS011;45078;51.654;21.250;2023-11-21T03:26:44;18.15;;;7.55;;
59310;SDS011;45078;51.654;21.250;2023-11-21T03:29:09;19.65;;;8.18;;
59310;SDS011;45078;51.654;21.250;2023-11-21T03:31:35;16.58;;;7.22;;
59310;SDS011;45078;51.654;21.250;2023-11-21T03:34:01;15.52;;;7.60;;
59310;SDS011;45078;51.654;21.250;2023-11-21T03:36:27;15.15;;;7.47;;
59310;SDS011;45078;51.654;21.250;2023-11-21T03:38:52;19.05;;;8.18;;
59310;SDS011;45078;51.654;21.250;2023-11-21T03:41:18;16.17;;;7.18;;
59310;SDS011;45078;51.654;21.250;2023-11-21T03:43:44;21.67;;;8.15;;
59310;SDS011;45078;51.654;21.250;2023-11-21T03:46:09;20.67;;;7.97;;
59310;SDS011;45078;51.654;21.250;2023-11-21T03:48:35;17.17;;;7.35;;
59310;SDS011;45078;51.654;21.250;2023-11-21T03:51:00;13.60;;;6.68;;
59310;SDS011;45078;51.654;21.250;2023-11-21T03:53:26;19.00;;;7.95;;
59310;SDS011;45078;51.654;21.250;2023-11-21T03:55:52;15.00;;;7.13;;
59310;SDS011;45078;51.654;21.250;2023-11-21T03:58:17;13.70;;;7.20;;
59310;SDS011;45078;51.654;21.250;2023-11-21T04:00:43;8.77;;;3.63;;
59310;SDS011;45078;51.654;21.250;2023-11-21T04:03:08;17.05;;;8.13;;
59310;SDS011;45078;51.654;21.250;2023-11-21T04:05:34;18.63;;;7.90;;
59310;SDS011;45078;51.654;21.250;2023-11-21T04:07:59;8.80;;;4.75;;
59310;SDS011;45078;51.654;21.250;2023-11-21T04:10:25;15.57;;;7.88;;
59310;SDS011;45078;51.654;21.250;2023-11-21T04:12:51;21.33;;;9.27;;
59310;SDS011;45078;51.654;21.250;2023-11-21T04:15:16;17.63;;;8.10;;
59310;SDS011;45078;51.654;21.250;2023-11-21T04:17:42;23.42;;;10.25;;
59310;SDS011;45078;51.654;21.250;2023-11-21T04:20:08;25.73;;;9.57;;
59310;SDS011;45078;51.654;21.250;2023-11-21T04:22:38;21.17;;;9.90;;
59310;SDS011;45078;51.654;21.250;2023-11-21T04:25:11;20.70;;;10.32;;
59310;SDS011;45078;51.654;21.250;2023-11-21T04:27:39;22.60;;;10.35;;
59310;SDS011;45078;51.654;21.250;2023-11-21T04:30:05;22.92;;;10.30;;
59310;SDS011;45078;51.654;21.250;2023-11-21T04:32:32;26.35;;;11.48;;
59310;SDS011;45078;51.654;21.250;2023-11-21T04:34:58;24.60;;;11.57;;
59310;SDS011;45078;51.654;21.250;2023-11-21T04:37:23;30.15;;;12.18;;
59310;SDS011;45078;51.654;21.250;2023-11-21T04:39:49;24.05;;;10.93;;
59310;SDS011;45078;51.654;21.250;2023-11-21T04:42:15;31.45;;;11.40;;
59310;SDS011;45078;51.654;21.250;2023-11-21T04:44:40;30.15;;;12.73;;
59310;SDS011;45078;51.654;21.250;2023-11-21T04:47:06;28.52;;;11.90;;
59310;SDS011;45078;51.654;21.250;2023-11-21T04:49:32;28.02;;;12.00;;
59310;SDS011;45078;51.654;21.250;2023-11-21T04:51:58;24.58;;;11.40;;
59310;SDS011;45078;51.654;21.250;2023-11-21T04:54:24;28.23;;;11.48;;
59310;SDS011;45078;51.654;21.250;2023-11-21T04:56:50;27.58;;;12.68;;
59310;SDS011;45078;51.654;21.250;2023-11-21T04:59:15;29.40;;;11.98;;
59310;SDS011;45078;51.654;21.250;2023-11-21T05:01:41;23.52;;;11.30;;
59310;SDS011;45078;51.654;21.250;2023-11-21T05:04:06;27.45;;;11.57;;
59310;SDS011;45078;51.654;21.250;2023-11-21T05:06:33;29.90;;;12.52;;
59310;SDS011;45078;51.654;21.250;2023-11-21T05:08:59;28.40;;;11.57;;
59310;SDS011;45078;51.654;21.250;2023-11-21T05:11:25;26.10;;;11.82;;
59310;SDS011;45078;51.654;21.250;2023-11-21T05:13:52;33.65;;;12.20;;
59310;SDS011;45078;51.654;21.250;2023-11-21T05:16:18;29.80;;;12.13;;
59310;SDS011;45078;51.654;21.250;2023-11-21T05:18:44;30.98;;;11.57;;
59310;SDS011;45078;51.654;21.250;2023-11-21T05:21:10;23.65;;;10.00;;
59310;SDS011;45078;51.654;21.250;2023-11-21T05:23:35;31.60;;;12.63;;
59310;SDS011;45078;51.654;21.250;2023-11-21T05:26:02;25.77;;;11.40;;
59310;SDS011;45078;51.654;21.250;2023-11-21T05:28:28;26.95;;;11.15;;
59310;SDS011;45078;51.654;21.250;2023-11-21T05:30:53;25.80;;;11.70;;
59310;SDS011;45078;51.654;21.250;2023-11-21T05:33:19;17.23;;;9.13;;
59310;SDS011;45078;51.654;21.250;2023-11-21T05:35:45;24.80;;;10.63;;
59310;SDS011;45078;51.654;21.250;2023-11-21T05:38:13;27.05;;;11.10;;
59310;SDS011;45078;51.654;21.250;2023-11-21T05:40:38;28.75;;;10.40;;
59310;SDS011;45078;51.654;21.250;2023-11-21T05:43:04;21.95;;;10.70;;
59310;SDS011;45078;51.654;21.250;2023-11-21T05:45:30;26.23;;;10.75;;
59310;SDS011;45078;51.654;21.250;2023-11-21T05:47:55;31.38;;;11.55;;
59310;SDS011;45078;51.654;21.250;2023-11-21T05:50:22;32.47;;;12.32;;
59310;SDS011;45078;51.654;21.250;2023-11-21T05:52:48;18.40;;;9.48;;
59310;SDS011;45078;51.654;21.250;2023-11-21T05:55:14;20.90;;;9.82;;
59310;SDS011;45078;51.654;21.250;2023-11-21T05:57:41;27.98;;;11.68;;
59310;SDS011;45078;51.654;21.250;2023-11-21T06:00:08;26.08;;;11.68;;
59310;SDS011;45078;51.654;21.250;2023-11-21T06:02:47;28.92;;;11.07;;
59310;SDS011;45078;51.654;21.250;2023-11-21T06:05:21;23.10;;;10.45;;
59310;SDS011;45078;51.654;21.250;2023-11-21T06:07:49;22.35;;;11.00;;
59310;SDS011;45078;51.654;21.250;2023-11-21T06:10:15;19.45;;;9.13;;
59310;SDS011;45078;51.654;21.250;2023-11-21T06:12:43;29.45;;;12.50;;
59310;SDS011;45078;51.654;21.250;2023-11-21T06:15:09;28.85;;;10.55;;
59310;SDS011;45078;51.654;21.250;2023-11-21T06:17:38;20.63;;;10.00;;
59310;SDS011;45078;51.654;21.250;2023-11-21T06:20:08;25.35;;;10.13;;
59310;SDS011;45078;51.654;21.250;2023-11-21T06:22:36;22.45;;;10.57;;
59310;SDS011;45078;51.654;21.250;2023-11-21T06:25:02;22.40;;;9.27;;
59310;SDS011;45078;51.654;21.250;2023-11-21T06:30:06;19.50;;;9.02;;
59310;SDS011;45078;51.654;21.250;2023-11-21T06:32:34;22.15;;;11.00;;
59310;SDS011;45078;51.654;21.250;2023-11-21T06:35:01;23.30;;;10.07;;
59310;SDS011;45078;51.654;21.250;2023-11-21T06:37:30;24.38;;;10.38;;
59310;SDS011;45078;51.654;21.250;2023-11-21T06:39:57;23.88;;;10.65;;
59310;SDS011;45078;51.654;21.250;2023-11-21T06:42:23;27.65;;;10.65;;
59310;SDS011;45078;51.654;21.250;2023-11-21T06:44:49;25.77;;;10.27;;
59310;SDS011;45078;51.654;21.250;2023-11-21T06:47:17;23.63;;;10.57;;
59310;SDS011;45078;51.654;21.250;2023-11-21T06:49:43;19.05;;;9.75;;
59310;SDS011;45078;51.654;21.250;2023-11-21T06:52:08;23.88;;;10.95;;
59310;SDS011;45078;51.654;21.250;2023-11-21T06:54:34;27.10;;;10.27;;
59310;SDS011;45078;51.654;21.250;2023-11-21T06:57:01;28.88;;;11.80;;
59310;SDS011;45078;51.654;21.250;2023-11-21T06:59:30;22.17;;;11.32;;
59310;SDS011;45078;51.654;21.250;2023-11-21T07:01:56;28.83;;;11.25;;
59310;SDS011;45078;51.654;21.250;2023-11-21T07:04:22;29.45;;;11.38;;
59310;SDS011;45078;51.654;21.250;2023-11-21T07:06:47;25.30;;;10.38;;
59310;SDS011;45078;51.654;21.250;2023-11-21T07:09:13;16.20;;;8.50;;
59310;SDS011;45078;51.654;21.250;2023-11-21T07:11:38;26.58;;;11.05;;
59310;SDS011;45078;51.654;21.250;2023-11-21T07:14:04;27.75;;;10.80;;
59310;SDS011;45078;51.654;21.250;2023-11-21T07:16:36;24.75;;;10.32;;
59310;SDS011;45078;51.654;21.250;2023-11-21T07:19:05;22.50;;;9.95;;
59310;SDS011;45078;51.654;21.250;2023-11-21T07:21:32;24.60;;;9.50;;
59310;SDS011;45078;51.654;21.250;2023-11-21T07:23:58;20.20;;;9.57;;
59310;SDS011;45078;51.654;21.250;2023-11-21T07:26:28;24.17;;;10.10;;
59310;SDS011;45078;51.654;21.250;2023-11-21T07:28:54;24.27;;;10.25;;
59310;SDS011;45078;51.654;21.250;2023-11-21T07:31:20;25.98;;;10.38;;
59310;SDS011;45078;51.654;21.250;2023-11-21T07:33:46;22.25;;;9.60;;
59310;SDS011;45078;51.654;21.250;2023-11-21T07:36:12;20.63;;;9.45;;
59310;SDS011;45078;51.654;21.250;2023-11-21T07:38:38;21.63;;;8.65;;
59310;SDS011;45078;51.654;21.250;2023-11-21T07:41:04;18.63;;;8.30;;
59310;SDS011;45078;51.654;21.250;2023-11-21T07:43:32;18.35;;;9.23;;
59310;SDS011;45078;51.654;21.250;2023-11-21T07:46:03;24.60;;;9.60;;
59310;SDS011;45078;51.654;21.250;2023-11-21T07:48:32;19.10;;;8.65;;
59310;SDS011;45078;51.654;21.250;2023-11-21T07:51:02;18.88;;;8.63;;
59310;SDS011;45078;51.654;21.250;2023-11-21T07:53:31;18.35;;;8.30;;
59310;SDS011;45078;51.654;21.250;2023-11-21T07:55:58;17.83;;;9.15;;
59310;SDS011;45078;51.654;21.250;2023-11-21T07:58:27;21.20;;;9.05;;
59310;SDS011;45078;51.654;21.250;2023-11-21T08:00:53;19.20;;;8.27;;
59310;SDS011;45078;51.654;21.250;2023-11-21T08:03:18;19.73;;;8.13;;
59310;SDS011;45078;51.654;21.250;2023-11-21T08:05:44;17.88;;;8.07;;
59310;SDS011;45078;51.654;21.250;2023-11-21T08:08:10;14.98;;;7.57;;
59310;SDS011;45078;51.654;21.250;2023-11-21T08:10:36;18.95;;;7.93;;
59310;SDS011;45078;51.654;21.250;2023-11-21T08:13:02;20.23;;;7.90;;
59310;SDS011;45078;51.654;21.250;2023-11-21T08:15:28;15.35;;;7.93;;
59310;SDS011;45078;51.654;21.250;2023-11-21T08:17:54;16.35;;;8.07;;
59310;SDS011;45078;51.654;21.250;2023-11-21T08:20:20;14.68;;;7.30;;
59310;SDS011;45078;51.654;21.250;2023-11-21T08:22:47;18.23;;;8.18;;
59310;SDS011;45078;51.654;21.250;2023-11-21T08:25:13;17.58;;;8.00;;
59310;SDS011;45078;51.654;21.250;2023-11-21T08:27:39;13.82;;;7.88;;
59310;SDS011;45078;51.654;21.250;2023-11-21T08:30:04;19.65;;;8.20;;
59310;SDS011;45078;51.654;21.250;2023-11-21T08:32:32;19.98;;;8.65;;
59310;SDS011;45078;51.654;21.250;2023-11-21T08:34:58;21.10;;;8.43;;
59310;SDS011;45078;51.654;21.250;2023-11-21T08:37:25;19.00;;;8.48;;
59310;SDS011;45078;51.654;21.250;2023-11-21T08:39:52;17.25;;;8.15;;
59310;SDS011;45078;51.654;21.250;2023-11-21T08:42:18;18.38;;;8.38;;
59310;SDS011;45078;51.654;21.250;2023-11-21T08:44:44;19.05;;;9.05;;
59310;SDS011;45078;51.654;21.250;2023-11-21T08:47:10;18.02;;;8.38;;
59310;SDS011;45078;51.654;21.250;2023-11-21T08:49:35;15.10;;;8.15;;
59310;SDS011;45078;51.654;21.250;2023-11-21T08:52:01;20.27;;;8.00;;
59310;SDS011;45078;51.654;21.250;2023-11-21T08:54:27;19.80;;;9.38;;
59310;SDS011;45078;51.654;21.250;2023-11-21T08:56:53;21.33;;;8.70;;
59310;SDS011;45078;51.654;21.250;2023-11-21T08:59:19;10.93;;;6.25;;
59310;SDS011;45078;51.654;21.250;2023-11-21T09:01:45;17.90;;;8.57;;
59310;SDS011;45078;51.654;21.250;2023-11-21T09:04:12;12.02;;;7.10;;
59310;SDS011;45078;51.654;21.250;2023-11-21T09:06:38;16.73;;;8.05;;
59310;SDS011;45078;51.654;21.250;2023-11-21T09:09:04;10.50;;;6.65;;
59310;SDS011;45078;51.654;21.250;2023-11-21T09:11:31;18.48;;;8.00;;
59310;SDS011;45078;51.654;21.250;2023-11-21T09:13:59;17.42;;;8.23;;
59310;SDS011;45078;51.654;21.250;2023-11-21T09:16:25;15.35;;;7.43;;
59310;SDS011;45078;51.654;21.250;2023-11-21T09:18:50;16.05;;;6.95;;
59310;SDS011;45078;51.654;21.250;2023-11-21T09:21:16;15.48;;;7.10;;
59310;SDS011;45078;51.654;21.250;2023-11-21T09:23:43;11.70;;;6.82;;
59310;SDS011;45078;51.654;21.250;2023-11-21T09:26:09;10.40;;;5.78;;
59310;SDS011;45078;51.654;21.250;2023-11-21T09:28:35;11.20;;;6.30;;
59310;SDS011;45078;51.654;21.250;2023-11-21T09:31:03;9.23;;;5.70;;
59310;SDS011;45078;51.654;21.250;2023-11-21T09:33:33;14.05;;;7.25;;
59310;SDS011;45078;51.654;21.250;2023-11-21T09:35:59;13.07;;;6.97;;
59310;SDS011;45078;51.654;21.250;2023-11-21T09:38:24;11.57;;;6.50;;
59310;SDS011;45078;51.654;21.250;2023-11-21T09:40:50;12.82;;;6.18;;
59310;SDS011;45078;51.654;21.250;2023-11-21T09:43:17;9.68;;;5.45;;
59310;SDS011;45078;51.654;21.250;2023-11-21T09:45:47;10.52;;;5.32;;
59310;SDS011;45078;51.654;21.250;2023-11-21T09:48:18;11.55;;;5.85;;
59310;SDS011;45078;51.654;21.250;2023-11-21T09:50:46;14.40;;;5.55;;
59310;SDS011;45078;51.654;21.250;2023-11-21T09:55:43;8.52;;;4.75;;
59310;SDS011;45078;51.654;21.250;2023-11-21T09:58:10;10.18;;;5.00;;
59310;SDS011;45078;51.654;21.250;2023-11-21T10:00:46;9.48;;;5.38;;
59310;SDS011;45078;51.654;21.250;2023-11-21T10:03:12;9.20;;;4.95;;
59310;SDS011;45078;51.654;21.250;2023-11-21T10:05:39;9.45;;;4.95;;
59310;SDS011;45078;51.654;21.250;2023-11-21T10:08:07;8.52;;;4.85;;
59310;SDS011;45078;51.654;21.250;2023-11-21T10:10:35;9.63;;;4.85;;
59310;SDS011;45078;51.654;21.250;2023-11-21T10:13:02;12.75;;;5.30;;
59310;SDS011;45078;51.654;21.250;2023-11-21T10:15:32;10.27;;;5.57;;
59310;SDS011;45078;51.654;21.250;2023-11-21T10:17:59;9.32;;;4.78;;
59310;SDS011;45078;51.654;21.250;2023-11-21T10:20:27;9.05;;;4.47;;
59310;SDS011;45078;51.654;21.250;2023-11-21T10:22:54;10.45;;;4.57;;
59310;SDS011;45078;51.654;21.250;2023-11-21T10:25:21;10.60;;;5.20;;
59310;SDS011;45078;51.654;21.250;2023-11-21T10:27:48;8.77;;;5.40;;
59310;SDS011;45078;51.654;21.250;2023-11-21T10:30:16;7.10;;;4.18;;
59310;SDS011;45078;51.654;21.250;2023-11-21T10:32:43;8.18;;;3.85;;
59310;SDS011;45078;51.654;21.250;2023-11-21T10:35:08;6.07;;;3.70;;
59310;SDS011;45078;51.654;21.250;2023-11-21T10:37:38;15.18;;;7.72;;
59310;SDS011;45078;51.654;21.250;2023-11-21T10:40:05;8.73;;;4.47;;
59310;SDS011;45078;51.654;21.250;2023-11-21T10:42:33;8.07;;;3.67;;
59310;SDS011;45078;51.654;21.250;2023-11-21T10:44:58;9.30;;;5.07;;
59310;SDS011;45078;51.654;21.250;2023-11-21T10:47:25;8.95;;;4.38;;
59310;SDS011;45078;51.654;21.250;2023-11-21T10:49:52;9.35;;;4.65;;
59310;SDS011;45078;51.654;21.250;2023-11-21T10:52:20;7.72;;;4.40;;
59310;SDS011;45078;51.654;21.250;2023-11-21T10:54:46;8.30;;;5.00;;
59310;SDS011;45078;51.654;21.250;2023-11-21T10:57:13;10.82;;;5.63;;
59310;SDS011;45078;51.654;21.250;2023-11-21T10:59:43;7.20;;;4.05;;
59310;SDS011;45078;51.654;21.250;2023-11-21T11:02:21;8.75;;;5.10;;
59310;SDS011;45078;51.654;21.250;2023-11-21T11:04:59;6.13;;;3.97;;
59310;SDS011;45078;51.654;21.250;2023-11-21T11:07:26;8.43;;;4.90;;
59310;SDS011;45078;51.654;21.250;2023-11-21T11:09:53;6.75;;;4.22;;
59310;SDS011;45078;51.654;21.250;2023-11-21T11:12:20;9.68;;;4.82;;
59310;SDS011;45078;51.654;21.250;2023-11-21T11:14:46;9.45;;;4.25;;
59310;SDS011;45078;51.654;21.250;2023-11-21T11:17:13;7.68;;;4.38;;
59310;SDS011;45078;51.654;21.250;2023-11-21T11:19:39;9.40;;;3.85;;
59310;SDS011;45078;51.654;21.250;2023-11-21T11:22:10;8.52;;;4.57;;
59310;SDS011;45078;51.654;21.250;2023-11-21T11:27:24;6.95;;;4.45;;
59310;SDS011;45078;51.654;21.250;2023-11-21T11:30:10;6.65;;;4.10;;
59310;SDS011;45078;51.654;21.250;2023-11-21T11:35:37;7.13;;;3.90;;
59310;SDS011;45078;51.654;21.250;2023-11-21T11:38:06;6.72;;;3.97;;
59310;SDS011;45078;51.654;21.250;2023-11-21T11:40:44;7.70;;;4.47;;
59310;SDS011;45078;51.654;21.250;2023-11-21T11:43:11;5.80;;;3.72;;
59310;SDS011;45078;51.654;21.250;2023-11-21T11:45:36;5.95;;;3.85;;
59310;SDS011;45078;51.654;21.250;2023-11-21T11:48:07;7.30;;;4.45;;
59310;SDS011;45078;51.654;21.250;2023-11-21T11:50:33;8.68;;;4.75;;
59310;SDS011;45078;51.654;21.250;2023-11-21T11:53:12;6.43;;;3.92;;
59310;SDS011;45078;51.654;21.250;2023-11-21T11:55:40;7.10;;;4.47;;
59310;SDS011;45078;51.654;21.250;2023-11-21T11:58:06;7.00;;;4.15;;
59310;SDS011;45078;51.654;21.250;2023-11-21T12:00:33;6.93;;;3.85;;
59310;SDS011;45078;51.654;21.250;2023-11-21T12:03:02;8.30;;;4.78;;
59310;SDS011;45078;51.654;21.250;2023-11-21T12:05:29;8.27;;;4.10;;
59310;SDS011;45078;51.654;21.250;2023-11-21T12:08:07;8.98;;;4.30;;
59310;SDS011;45078;51.654;21.250;2023-11-21T12:10:34;8.40;;;4.97;;
59310;SDS011;45078;51.654;21.250;2023-11-21T12:13:02;7.82;;;4.25;;
59310;SDS011;45078;51.654;21.250;2023-11-21T12:15:32;7.88;;;4.10;;
59310;SDS011;45078;51.654;21.250;2023-11-21T12:17:58;7.80;;;4.07;;
59310;SDS011;45078;51.654;21.250;2023-11-21T12:20:24;7.72;;;4.43;;
59310;SDS011;45078;51.654;21.250;2023-11-21T12:22:52;9.88;;;4.20;;
59310;SDS011;45078;51.654;21.250;2023-11-21T12:25:22;11.90;;;4.72;;
59310;SDS011;45078;51.654;21.250;2023-11-21T12:27:52;8.27;;;4.65;;
59310;SDS011;45078;51.654;21.250;2023-11-21T12:30:19;10.63;;;5.07;;
59310;SDS011;45078;51.654;21.250;2023-11-21T12:32:54;11.77;;;5.18;;
59310;SDS011;45078;51.654;21.250;2023-11-21T12:35:24;9.20;;;5.50;;
59310;SDS011;45078;51.654;21.250;2023-11-21T12:37:51;10.35;;;5.57;;
59310;SDS011;45078;51.654;21.250;2023-11-21T12:40:18;11.55;;;6.18;;
59310;SDS011;45078;51.654;21.250;2023-11-21T12:42:45;11.60;;;5.43;;
59310;SDS011;45078;51.654;21.250;2023-11-21T12:47:45;10.90;;;5.82;;
59310;SDS011;45078;51.654;21.250;2023-11-21T12:50:13;13.55;;;6.32;;
59310;SDS011;45078;51.654;21.250;2023-11-21T12:52:42;12.10;;;6.28;;
59310;SDS011;45078;51.654;21.250;2023-11-21T12:55:18;14.35;;;7.07;;
59310;SDS011;45078;51.654;21.250;2023-11-21T12:57:52;13.27;;;6.50;;
59310;SDS011;45078;51.654;21.250;2023-11-21T13:00:19;14.93;;;6.78;;
59310;SDS011;45078;51.654;21.250;2023-11-21T13:05:35;14.52;;;6.57;;
59310;SDS011;45078;51.654;21.250;2023-11-21T13:08:07;11.98;;;6.60;;
59310;SDS011;45078;51.654;21.250;2023-11-21T13:10:35;12.45;;;7.25;;
59310;SDS011;45078;51.654;21.250;2023-11-21T13:13:02;12.77;;;7.25;;
59310;SDS011;45078;51.654;21.250;2023-11-21T13:15:39;13.75;;;7.50;;
59310;SDS011;45078;51.654;21.250;2023-11-21T13:18:08;17.48;;;8.85;;
59310;SDS011;45078;51.654;21.250;2023-11-21T13:20:35;11.45;;;6.20;;
59310;SDS011;45078;51.654;21.250;2023-11-21T13:23:06;14.93;;;7.80;;
59310;SDS011;45078;51.654;21.250;2023-11-21T13:25:33;15.38;;;7.95;;
59310;SDS011;45078;51.654;21.250;2023-11-21T13:27:59;16.05;;;8.57;;
59310;SDS011;45078;51.654;21.250;2023-11-21T13:30:28;19.13;;;8.98;;
59310;SDS011;45078;51.654;21.250;2023-11-21T13:33:03;13.75;;;8.15;;
59310;SDS011;45078;51.654;21.250;2023-11-21T13:35:36;14.98;;;8.00;;
59310;SDS011;45078;51.654;21.250;2023-11-21T13:38:06;17.83;;;8.95;;
59310;SDS011;45078;51.654;21.250;2023-11-21T13:40:33;20.35;;;8.82;;
59310;SDS011;45078;51.654;21.250;2023-11-21T13:43:04;18.73;;;9.43;;
59310;SDS011;45078;51.654;21.250;2023-11-21T13:45:34;22.60;;;10.35;;
59310;SDS011;45078;51.654;21.250;2023-11-21T13:48:07;19.27;;;8.93;;
59310;SDS011;45078;51.654;21.250;2023-11-21T13:50:41;18.00;;;9.40;;
59310;SDS011;45078;51.654;21.250;2023-11-21T13:53:13;16.73;;;8.57;;
59310;SDS011;45078;51.654;21.250;2023-11-21T13:55:50;17.17;;;8.98;;
59310;SDS011;45078;51.654;21.250;2023-11-21T13:58:19;20.75;;;10.20;;
59310;SDS011;45078;51.654;21.250;2023-11-21T14:00:51;19.67;;;9.15;;
59310;SDS011;45078;51.654;21.250;2023-11-21T14:03:22;20.20;;;10.02;;
59310;SDS011;45078;51.654;21.250;2023-11-21T14:05:57;22.15;;;11.18;;
59310;SDS011;45078;51.654;21.250;2023-11-21T14:08:25;17.40;;;9.13;;
59310;SDS011;45078;51.654;21.250;2023-11-21T14:10:54;20.42;;;9.13;;
59310;SDS011;45078;51.654;21.250;2023-11-21T14:13:26;19.10;;;9.95;;
59310;SDS011;45078;51.654;21.250;2023-11-21T14:15:52;21.33;;;10.00;;
59310;SDS011;45078;51.654;21.250;2023-11-21T14:18:22;21.75;;;10.75;;
59310;SDS011;45078;51.654;21.250;2023-11-21T14:20:52;22.00;;;10.27;;
59310;SDS011;45078;51.654;21.250;2023-11-21T14:23:18;23.70;;;10.90;;
59310;SDS011;45078;51.654;21.250;2023-11-21T14:25:43;20.38;;;9.50;;
59310;SDS011;45078;51.654;21.250;2023-11-21T14:28:09;24.33;;;10.57;;
59310;SDS011;45078;51.654;21.250;2023-11-21T14:30:37;21.13;;;10.07;;
59310;SDS011;45078;51.654;21.250;2023-11-21T14:33:04;19.50;;;10.55;;
59310;SDS011;45078;51.654;21.250;2023-11-21T14:35:31;23.52;;;11.25;;
59310;SDS011;45078;51.654;21.250;2023-11-21T14:37:57;16.85;;;9.93;;